createdAt,value
2022-10-07T00:00:53.182Z,78.27
2022-10-07T00:03:22.442Z,78.03
2022-10-07T00:06:11.296Z,78.20
2022-10-07T00:08:39.803Z,77.92
2022-10-07T00:11:09.915Z,78.21
2022-10-07T00:13:38.941Z,78.22
2022-10-07T00:16:08.559Z,77.88
2022-10-07T00:18:36.869Z,77.68
2022-10-07T00:21:06.051Z,77.95
2022-10-07T00:23:33.423Z,77.84
2022-10-07T00:26:05.398Z,78.00
2022-10-07T00:28:33.124Z,77.64
2022-10-07T00:31:02.175Z,77.37
2022-10-07T00:33:34.634Z,77.10
2022-10-07T00:36:01.755Z,77.28
2022-10-07T00:38:28.577Z,77.22
2022-10-07T00:40:55.446Z,77.33
2022-10-07T00:43:26.450Z,77.33
2022-10-07T00:45:57.922Z,76.86
2022-10-07T00:48:29.274Z,76.84
2022-10-07T00:50:59.406Z,76.73
2022-10-07T00:53:30.342Z,76.89
2022-10-07T00:56:01.631Z,76.98
2022-10-07T00:58:34.578Z,76.83
2022-10-07T01:01:02.202Z,77.06
2022-10-07T01:03:29.846Z,76.95
2022-10-07T01:05:56.735Z,77.23
2022-10-07T01:08:24.055Z,77.03
2022-10-07T01:10:57.207Z,77.37
2022-10-07T01:13:32.459Z,77.95
2022-10-07T01:16:06.270Z,77.72
2022-10-07T01:18:33.402Z,78.14
2022-10-07T01:21:10.388Z,78.17
2022-10-07T01:24:02.849Z,78.59
2022-10-07T01:26:46.327Z,78.79
2022-10-07T01:29:34.898Z,79.33
2022-10-07T01:32:09.325Z,79.83
2022-10-07T01:34:38.634Z,80.53
2022-10-07T01:37:08.459Z,80.99
2022-10-07T01:39:42.269Z,81.84
2022-10-07T01:42:09.576Z,81.94
2022-10-07T01:44:37.494Z,82.16
2022-10-07T01:47:04.677Z,82.71
2022-10-07T01:49:31.639Z,82.96
2022-10-07T01:52:26.390Z,82.93
2022-10-07T01:55:23.800Z,82.89
2022-10-07T01:58:12.672Z,82.81
2022-10-07T02:00:51.119Z,82.35
2022-10-07T02:03:29.066Z,82.06
2022-10-07T02:06:18.997Z,81.33
2022-10-07T02:08:50.879Z,80.87
2022-10-07T02:11:27.655Z,80.49
2022-10-07T02:14:15.409Z,79.98
2022-10-07T02:16:46.851Z,79.44
2022-10-07T02:19:36.027Z,78.80
2022-10-07T02:22:04.082Z,78.66
2022-10-07T02:24:35.533Z,78.87
2022-10-07T02:27:12.007Z,78.47
2022-10-07T02:29:42.882Z,78.98
2022-10-07T02:32:18.816Z,79.06
2022-10-07T02:34:51.961Z,79.10
2022-10-07T02:37:25.732Z,79.07
2022-10-07T02:39:54.812Z,79.21
2022-10-07T02:42:39.331Z,79.12
2022-10-07T02:45:13.461Z,79.24
2022-10-07T02:47:48.163Z,78.89
2022-10-07T02:50:22.494Z,79.16
2022-10-07T02:52:52.782Z,78.76
2022-10-07T02:55:23.809Z,78.96
2022-10-07T02:57:54.686Z,79.18
2022-10-07T03:00:23.389Z,79.21
2022-10-07T03:02:59.183Z,79.48
2022-10-07T03:05:34.753Z,79.46
2022-10-07T03:08:07.929Z,79.46
2022-10-07T03:10:36.470Z,79.40
2022-10-07T03:13:05.021Z,79.59
2022-10-07T03:15:41.812Z,79.77
2022-10-07T03:18:26.585Z,79.86
2022-10-07T03:21:00.338Z,80.01
2022-10-07T03:23:29.503Z,80.15
2022-10-07T03:25:58.951Z,80.24
2022-10-07T03:28:28.452Z,79.99
2022-10-07T03:31:04.756Z,80.12
2022-10-07T03:33:31.817Z,80.32
2022-10-07T03:35:59.116Z,80.15
2022-10-07T03:38:25.971Z,80.40
2022-10-07T03:40:52.881Z,80.49
2022-10-07T03:43:19.934Z,80.75
2022-10-07T03:45:51.114Z,79.93
2022-10-07T03:48:18.574Z,79.15
2022-10-07T03:50:53.581Z,78.48
2022-10-07T03:53:23.694Z,77.54
2022-10-07T03:55:50.605Z,77.01
2022-10-07T03:58:17.632Z,76.48
2022-10-07T04:00:45.665Z,76.18
2022-10-07T04:03:14.375Z,75.70
2022-10-07T04:05:41.964Z,75.78
2022-10-07T04:08:11.956Z,75.91
2022-10-07T04:10:39.014Z,76.14
2022-10-07T04:13:05.883Z,76.03
2022-10-07T04:15:32.896Z,75.42
2022-10-07T04:18:00.026Z,75.60
2022-10-07T04:20:29.485Z,75.44
2022-10-07T04:22:56.467Z,75.94
2022-10-07T04:25:35.534Z,76.37
2022-10-07T04:28:16.073Z,77.21
2022-10-07T04:30:45.230Z,77.47
2022-10-07T04:33:14.014Z,77.94
2022-10-07T04:35:41.375Z,78.38
2022-10-07T04:38:10.655Z,79.10
2022-10-07T04:40:41.582Z,79.53
2022-10-07T04:43:20.322Z,79.05
2022-10-07T04:45:54.685Z,79.35
2022-10-07T04:48:23.973Z,79.91
2022-10-07T04:50:54.086Z,80.13
2022-10-07T04:53:22.808Z,80.28
2022-10-07T04:55:54.637Z,80.17
2022-10-07T04:58:23.984Z,80.34
2022-10-07T05:00:53.217Z,80.57
2022-10-07T05:03:25.206Z,80.77
2022-10-07T05:05:55.434Z,80.80
2022-10-07T05:08:25.100Z,80.97
2022-10-07T05:10:57.845Z,81.71
2022-10-07T05:13:27.682Z,81.52
2022-10-07T05:16:01.035Z,81.47
2022-10-07T05:18:29.810Z,82.12
2022-10-07T05:21:04.459Z,82.33
2022-10-07T05:23:31.615Z,82.44
2022-10-07T05:26:11.065Z,82.74
2022-10-07T05:28:45.623Z,82.63
2022-10-07T05:31:15.947Z,82.94
2022-10-07T05:33:49.545Z,82.71
2022-10-07T05:36:20.039Z,83.38
2022-10-07T05:38:47.801Z,83.72
2022-10-07T05:41:14.930Z,83.99
2022-10-07T05:43:43.502Z,84.67
2022-10-07T05:46:16.906Z,84.50
2022-10-07T05:48:51.311Z,84.90
2022-10-07T05:51:21.674Z,85.33
2022-10-07T05:53:53.144Z,85.50
2022-10-07T05:56:24.064Z,85.38
2022-10-07T05:58:53.794Z,85.04
2022-10-07T06:01:22.742Z,85.04
2022-10-07T06:03:54.513Z,84.83
2022-10-07T06:06:25.439Z,84.85
2022-10-07T06:08:54.767Z,84.60
2022-10-07T06:11:40.269Z,84.71
2022-10-07T06:14:07.416Z,84.30
2022-10-07T06:16:34.396Z,84.15
2022-10-07T06:19:01.579Z,83.64
2022-10-07T06:21:31.342Z,83.56
2022-10-07T06:24:01.800Z,83.42
2022-10-07T06:26:33.975Z,82.98
2022-10-07T06:29:04.689Z,82.76
2022-10-07T06:31:32.530Z,82.96
2022-10-07T06:34:03.318Z,82.71
2022-10-07T06:36:31.760Z,82.62
2022-10-07T06:38:59.621Z,83.11
2022-10-07T06:41:32.292Z,83.42
2022-10-07T06:44:09.011Z,83.22
2022-10-07T06:46:36.018Z,83.17
2022-10-07T06:49:03.980Z,83.41
2022-10-07T06:51:30.893Z,83.73
2022-10-07T06:53:58.142Z,83.75
2022-10-07T06:56:26.588Z,84.00
2022-10-07T06:58:53.646Z,84.01
2022-10-07T07:01:30.632Z,83.90
2022-10-07T07:03:58.669Z,84.11
2022-10-07T07:06:26.241Z,84.35
2022-10-07T07:08:55.961Z,83.79
2022-10-07T07:11:38.287Z,83.41
2022-10-07T07:14:12.734Z,82.63
2022-10-07T07:16:42.289Z,82.12
2022-10-07T07:19:12.037Z,81.47
2022-10-07T07:21:41.129Z,80.49
2022-10-07T07:24:11.420Z,79.54
2022-10-07T07:26:40.440Z,79.83
2022-10-07T07:29:12.032Z,79.70
2022-10-07T07:31:44.919Z,78.71
2022-10-07T07:34:14.330Z,78.37
2022-10-07T07:36:48.105Z,78.23
2022-10-07T07:39:17.960Z,77.32
2022-10-07T07:41:51.026Z,76.52
2022-10-07T07:44:20.536Z,76.61
2022-10-07T07:46:51.367Z,76.41
2022-10-07T07:49:21.114Z,76.06
2022-10-07T07:51:48.974Z,75.79
2022-10-07T07:54:23.024Z,75.57
2022-10-07T07:56:49.908Z,75.88
2022-10-07T07:59:19.439Z,75.34
2022-10-07T08:01:48.833Z,75.13
2022-10-07T08:04:16.575Z,74.52
2022-10-07T08:06:43.793Z,75.83
2022-10-07T08:09:30.434Z,73.99
2022-10-07T08:11:58.166Z,73.96
2022-10-07T08:14:25.833Z,72.96
2022-10-07T08:16:56.260Z,72.41
2022-10-07T08:19:24.343Z,71.79
2022-10-07T08:21:52.694Z,71.27
2022-10-07T08:24:25.848Z,70.81
2022-10-07T08:26:53.859Z,70.00
2022-10-07T08:29:21.992Z,69.77
2022-10-07T08:31:49.590Z,69.58
2022-10-07T08:34:16.622Z,69.45
2022-10-07T08:36:48.020Z,68.92
2022-10-07T08:39:15.358Z,68.55
2022-10-07T08:41:58.372Z,67.53
2022-10-07T08:44:32.454Z,67.68
2022-10-07T08:47:27.045Z,66.96
2022-10-07T08:50:04.472Z,66.28
2022-10-07T08:52:32.762Z,67.32
2022-10-07T08:55:01.665Z,68.24
2022-10-07T08:57:47.871Z,66.86
2022-10-07T09:00:18.968Z,65.42
2022-10-07T09:03:14.787Z,65.02
2022-10-07T09:05:46.867Z,64.36
2022-10-07T09:08:30.253Z,64.61
2022-10-07T09:11:15.934Z,64.13
2022-10-07T09:13:52.940Z,64.04
2022-10-07T09:16:32.480Z,62.10
2022-10-07T09:19:02.372Z,61.47
2022-10-07T09:21:50.156Z,59.99
2022-10-07T09:24:24.509Z,60.46
2022-10-07T09:26:57.357Z,57.80
2022-10-07T09:29:26.674Z,58.71
2022-10-07T09:31:55.424Z,54.83
2022-10-07T09:34:25.440Z,55.11
2022-10-07T09:37:11.917Z,53.73
2022-10-07T09:39:40.314Z,55.44
2022-10-07T09:42:44.132Z,53.11
2022-10-07T09:45:33.357Z,53.73
2022-10-07T09:48:17.382Z,54.90
2022-10-07T09:50:44.780Z,53.03
2022-10-07T09:53:29.308Z,54.29
2022-10-07T09:55:56.234Z,54.24
2022-10-07T09:58:28.990Z,54.91
2022-10-07T10:00:58.967Z,55.29
2022-10-07T10:03:34.307Z,53.47
2022-10-07T10:06:07.375Z,54.93
2022-10-07T10:08:34.315Z,53.77
2022-10-07T10:11:04.121Z,55.93
2022-10-07T10:13:40.871Z,55.86
2022-10-07T10:16:28.897Z,55.90
2022-10-07T10:18:55.943Z,55.96
2022-10-07T10:21:30.807Z,54.25
2022-10-07T10:24:06.004Z,53.28
2022-10-07T10:26:53.958Z,53.66
2022-10-07T10:29:35.879Z,53.57
2022-10-07T10:32:24.559Z,52.88
2022-10-07T10:35:16.032Z,52.80
2022-10-07T10:38:00.996Z,52.42
2022-10-07T10:40:36.449Z,53.48
2022-10-07T10:43:22.281Z,53.98
2022-10-07T10:46:07.736Z,53.47
2022-10-07T10:48:46.771Z,54.31
2022-10-07T10:51:31.680Z,54.31
2022-10-07T10:54:19.240Z,52.05
2022-10-07T10:56:55.847Z,51.16
2022-10-07T10:59:47.394Z,50.73
2022-10-07T11:02:30.613Z,49.94
2022-10-07T11:05:33.316Z,50.32
2022-10-07T11:08:25.320Z,49.20
2022-10-07T11:11:07.073Z,49.88
2022-10-07T11:13:37.224Z,49.37
2022-10-07T11:16:18.147Z,49.41
2022-10-07T11:18:55.475Z,48.94
2022-10-07T11:21:33.568Z,49.77
2022-10-07T11:24:34.494Z,49.56
2022-10-07T11:27:19.268Z,49.99
2022-10-07T11:30:15.577Z,50.15
2022-10-07T11:33:01.150Z,49.26
2022-10-07T11:35:34.479Z,49.61
2022-10-07T11:38:14.441Z,49.15
2022-10-07T11:40:55.931Z,48.75
2022-10-07T11:43:38.382Z,48.36
2022-10-07T11:46:14.501Z,48.36
2022-10-07T11:48:52.556Z,48.54
2022-10-07T11:51:36.862Z,47.54
2022-10-07T11:54:06.817Z,48.71
2022-10-07T11:56:46.073Z,49.53
2022-10-07T11:59:34.381Z,49.20
2022-10-07T12:02:02.986Z,49.45
2022-10-07T12:04:29.833Z,50.31
2022-10-07T12:07:33.842Z,50.66
2022-10-07T12:10:03.970Z,50.64
2022-10-07T12:12:47.482Z,50.48
2022-10-07T12:15:33.708Z,49.95
2022-10-07T12:18:05.921Z,50.66
2022-10-07T12:20:42.932Z,50.51
2022-10-07T12:23:19.263Z,50.41
2022-10-07T12:25:49.724Z,51.39
2022-10-07T12:28:34.606Z,51.22
2022-10-07T12:31:26.785Z,50.68
2022-10-07T12:34:04.306Z,50.50
2022-10-07T12:36:32.196Z,49.54
2022-10-07T12:39:02.613Z,50.28
2022-10-07T12:41:40.563Z,49.75
2022-10-07T12:44:27.691Z,49.33
2022-10-07T12:47:13.719Z,49.51
2022-10-07T12:49:49.198Z,48.34
2022-10-07T12:52:27.476Z,48.58
2022-10-07T12:55:00.197Z,49.88
2022-10-07T12:57:34.180Z,49.93
2022-10-07T13:00:21.296Z,49.71
2022-10-07T13:02:51.569Z,50.11
2022-10-07T13:05:49.735Z,50.52
2022-10-07T13:08:19.656Z,50.04
2022-10-07T13:11:37.554Z,50.30
2022-10-07T13:14:19.170Z,50.80
2022-10-07T13:16:46.057Z,50.20
2022-10-07T13:19:19.729Z,50.13
2022-10-07T13:21:56.868Z,50.41
2022-10-07T13:24:28.381Z,50.70
2022-10-07T13:26:56.842Z,51.27
2022-10-07T13:29:33.006Z,50.54
2022-10-07T13:32:23.758Z,50.17
2022-10-07T13:34:54.486Z,50.34
2022-10-07T13:37:29.025Z,50.51
2022-10-07T13:39:57.386Z,50.89
2022-10-07T13:42:29.465Z,50.73
2022-10-07T13:45:02.946Z,51.31
2022-10-07T13:47:36.481Z,50.41
2022-10-07T13:50:04.387Z,50.35
2022-10-07T13:52:40.035Z,50.88
2022-10-07T13:55:25.394Z,50.81
2022-10-07T13:57:57.451Z,51.05
2022-10-07T14:00:25.466Z,51.03
2022-10-07T14:02:52.735Z,51.55
2022-10-07T14:05:27.786Z,51.32
2022-10-07T14:07:58.200Z,51.43
2022-10-07T14:10:28.227Z,51.13
2022-10-07T14:12:58.032Z,51.19
2022-10-07T14:15:27.918Z,51.84
2022-10-07T14:18:11.220Z,51.53
2022-10-07T14:20:43.667Z,51.99
2022-10-07T14:23:34.314Z,52.34
2022-10-07T14:26:07.484Z,52.01
2022-10-07T14:28:36.387Z,51.72
2022-10-07T14:31:25.889Z,52.47
2022-10-07T14:34:31.538Z,52.16
2022-10-07T14:37:09.360Z,51.96
2022-10-07T14:39:38.976Z,52.31
2022-10-07T14:42:10.911Z,52.53
2022-10-07T14:44:38.053Z,52.79
2022-10-07T14:47:26.121Z,53.17
2022-10-07T14:49:54.951Z,53.60
2022-10-07T14:52:40.859Z,53.54
2022-10-07T14:55:22.151Z,53.82
2022-10-07T14:57:49.095Z,53.63
2022-10-07T15:00:22.054Z,53.78
2022-10-07T15:02:58.246Z,54.12
2022-10-07T15:05:26.565Z,54.51
2022-10-07T15:07:53.472Z,55.25
2022-10-07T15:10:26.455Z,56.88
2022-10-07T15:12:54.596Z,57.77
2022-10-07T15:15:21.759Z,58.24
2022-10-07T15:17:50.334Z,58.83
2022-10-07T15:20:17.951Z,59.06
2022-10-07T15:22:45.731Z,59.52
2022-10-07T15:25:15.235Z,60.04
2022-10-07T15:27:42.553Z,60.42
2022-10-07T15:30:10.259Z,60.67
2022-10-07T15:32:37.239Z,61.18
2022-10-07T15:35:04.364Z,61.36
2022-10-07T15:37:32.358Z,61.93
2022-10-07T15:39:59.254Z,61.84
2022-10-07T15:42:26.538Z,61.64
2022-10-07T15:44:53.759Z,62.21
2022-10-07T15:47:20.855Z,62.71
2022-10-07T15:49:47.952Z,63.05
2022-10-07T15:52:14.969Z,63.22
2022-10-07T15:54:41.807Z,63.74
2022-10-07T15:57:09.072Z,63.56
2022-10-07T15:59:36.011Z,63.82
2022-10-07T16:02:04.488Z,64.09
2022-10-07T16:04:31.940Z,64.22
2022-10-07T16:06:59.605Z,64.54
2022-10-07T16:09:26.735Z,64.45
2022-10-07T16:11:54.184Z,64.26
2022-10-07T16:14:21.231Z,64.22
2022-10-07T16:16:48.059Z,64.79
2022-10-07T16:19:14.934Z,64.97
2022-10-07T16:21:42.834Z,65.33
2022-10-07T16:24:20.830Z,65.60
2022-10-07T16:26:50.605Z,65.67
2022-10-07T16:29:39.582Z,65.78
2022-10-07T16:32:11.365Z,65.84
2022-10-07T16:34:39.285Z,66.22
2022-10-07T16:37:06.308Z,66.37
2022-10-07T16:39:33.392Z,66.17
2022-10-07T16:42:00.622Z,66.76
2022-10-07T16:44:27.943Z,66.47
2022-10-07T16:46:57.407Z,66.69
2022-10-07T16:49:26.179Z,66.59
2022-10-07T16:51:54.343Z,66.52
2022-10-07T16:54:21.974Z,66.64
2022-10-07T16:56:50.995Z,66.27
2022-10-07T16:59:24.519Z,66.18
2022-10-07T17:01:56.621Z,66.61
2022-10-07T17:04:24.793Z,66.34
2022-10-07T17:06:52.237Z,66.54
2022-10-07T17:09:19.769Z,66.91
2022-10-07T17:11:46.835Z,66.68
2022-10-07T17:14:17.623Z,66.86
2022-10-07T17:16:52.429Z,66.73
2022-10-07T17:19:22.069Z,66.89
2022-10-07T17:21:50.216Z,66.85
2022-10-07T17:24:18.853Z,66.61
2022-10-07T17:26:46.718Z,66.69
2022-10-07T17:29:16.552Z,66.62
2022-10-07T17:31:47.121Z,66.94
2022-10-07T17:34:15.932Z,66.90
2022-10-07T17:36:48.657Z,66.81
2022-10-07T17:39:19.165Z,66.60
2022-10-07T17:41:47.277Z,66.86
2022-10-07T17:44:14.046Z,67.09
2022-10-07T17:46:42.061Z,67.08
2022-10-07T17:49:14.410Z,66.98
2022-10-07T17:51:45.295Z,67.04
2022-10-07T17:54:14.034Z,66.80
2022-10-07T17:56:41.307Z,66.57
2022-10-07T17:59:08.413Z,66.41
2022-10-07T18:01:35.897Z,66.44
2022-10-07T18:04:09.704Z,66.32
2022-10-07T18:06:38.858Z,66.45
2022-10-07T18:09:08.519Z,66.25
2022-10-07T18:11:55.045Z,66.49
2022-10-07T18:14:41.179Z,66.34
2022-10-07T18:17:09.894Z,66.47
2022-10-07T18:19:37.104Z,66.74
2022-10-07T18:22:04.123Z,66.64
2022-10-07T18:24:31.007Z,66.48
2022-10-07T18:27:00.203Z,66.87
2022-10-07T18:29:29.370Z,66.12
2022-10-07T18:31:56.477Z,66.40
2022-10-07T18:34:24.326Z,66.51
2022-10-07T18:36:56.231Z,66.46
2022-10-07T18:39:29.991Z,66.61
2022-10-07T18:41:58.087Z,66.63
2022-10-07T18:44:25.972Z,66.42
2022-10-07T18:46:53.465Z,66.50
2022-10-07T18:49:20.412Z,66.64
2022-10-07T18:51:51.474Z,66.69
2022-10-07T18:54:20.411Z,66.32
2022-10-07T18:56:49.605Z,66.56
2022-10-07T18:59:17.781Z,66.39
2022-10-07T19:01:49.831Z,66.86
2022-10-07T19:04:18.900Z,66.48
2022-10-07T19:06:46.563Z,66.69
2022-10-07T19:09:17.792Z,66.50
2022-10-07T19:11:45.385Z,66.69
2022-10-07T19:14:12.986Z,66.23
2022-10-07T19:16:49.337Z,66.16
2022-10-07T19:19:17.618Z,66.09
2022-10-07T19:21:47.456Z,66.54
2022-10-07T19:24:15.881Z,66.22
2022-10-07T19:26:45.858Z,66.29
2022-10-07T19:29:14.160Z,66.17
2022-10-07T19:31:48.653Z,66.26
2022-10-07T19:34:22.463Z,66.30
2022-10-07T19:36:51.729Z,66.50
2022-10-07T19:39:22.012Z,66.29
2022-10-07T19:41:51.189Z,66.55
2022-10-07T19:44:18.596Z,66.38
2022-10-07T19:46:45.718Z,66.81
2022-10-07T19:49:12.596Z,66.89
2022-10-07T19:51:40.511Z,67.26
2022-10-07T19:54:10.832Z,67.40
2022-10-07T19:56:40.843Z,68.03
2022-10-07T19:59:10.323Z,68.71
2022-10-07T20:01:42.032Z,68.92
2022-10-07T20:04:13.481Z,69.24
2022-10-07T20:06:41.108Z,69.15
2022-10-07T20:09:11.141Z,69.37
2022-10-07T20:11:38.029Z,69.41
2022-10-07T20:14:06.051Z,69.71
2022-10-07T20:16:34.356Z,69.54
2022-10-07T20:19:05.792Z,69.92
2022-10-07T20:21:35.744Z,70.17
2022-10-07T20:24:04.251Z,70.48
2022-10-07T20:26:33.864Z,70.67
2022-10-07T20:29:02.856Z,70.62
2022-10-07T20:31:33.243Z,70.91
2022-10-07T20:34:01.596Z,70.77
2022-10-07T20:36:31.650Z,71.03
2022-10-07T20:39:19.276Z,71.23
2022-10-07T20:42:09.276Z,71.31
2022-10-07T20:44:39.501Z,71.17
2022-10-07T20:47:07.866Z,71.52
2022-10-07T20:49:37.198Z,71.55
2022-10-07T20:52:29.414Z,71.63
2022-10-07T20:54:56.292Z,71.77
2022-10-07T20:57:26.041Z,71.49
2022-10-07T20:59:53.674Z,71.57
2022-10-07T21:02:22.032Z,71.88
2022-10-07T21:04:49.317Z,72.21
2022-10-07T21:07:17.928Z,72.06
2022-10-07T21:09:45.062Z,71.88
2022-10-07T21:12:15.183Z,71.27
2022-10-07T21:14:43.236Z,71.42
2022-10-07T21:17:11.094Z,70.88
2022-10-07T21:19:37.969Z,70.00
2022-10-07T21:22:05.960Z,69.91
2022-10-07T21:24:35.677Z,69.25
2022-10-07T21:27:07.302Z,69.21
2022-10-07T21:29:40.155Z,68.61
2022-10-07T21:32:09.473Z,68.50
2022-10-07T21:34:37.053Z,68.63
2022-10-07T21:37:04.766Z,68.58
2022-10-07T21:39:32.049Z,69.02
2022-10-07T21:41:59.261Z,68.86
2022-10-07T21:44:27.455Z,68.68
2022-10-07T21:46:54.499Z,68.91
2022-10-07T21:49:21.294Z,69.30
2022-10-07T21:51:48.184Z,69.25
2022-10-07T21:54:15.517Z,69.77
2022-10-07T21:56:45.139Z,69.93
2022-10-07T21:59:12.546Z,70.06
2022-10-07T22:01:39.454Z,70.39
2022-10-07T22:04:08.037Z,70.28
2022-10-07T22:06:53.647Z,70.45
2022-10-07T22:09:21.380Z,70.88
2022-10-07T22:11:50.247Z,71.12
2022-10-07T22:14:19.126Z,71.32
2022-10-07T22:16:49.775Z,70.56
2022-10-07T22:19:17.617Z,70.64
2022-10-07T22:21:45.671Z,70.47
2022-10-07T22:24:12.965Z,70.94
2022-10-07T22:26:43.731Z,71.32
2022-10-07T22:29:11.099Z,70.85
2022-10-07T22:31:37.973Z,70.71
2022-10-07T22:34:05.882Z,71.29
2022-10-07T22:36:33.017Z,71.15
2022-10-07T22:39:00.119Z,71.28
2022-10-07T22:41:27.962Z,71.69
2022-10-07T22:43:55.190Z,71.75
2022-10-07T22:46:27.367Z,71.50
2022-10-07T22:48:56.454Z,71.19
2022-10-07T22:51:26.900Z,71.06
2022-10-07T22:53:55.248Z,70.84
2022-10-07T22:56:23.754Z,70.78
2022-10-07T22:58:57.935Z,70.60
2022-10-07T23:01:25.808Z,70.41
2022-10-07T23:03:52.929Z,70.71
2022-10-07T23:06:20.015Z,70.66
2022-10-07T23:08:48.255Z,71.20
2022-10-07T23:11:18.975Z,71.45
2022-10-07T23:13:46.173Z,71.41
2022-10-07T23:16:15.676Z,71.99
2022-10-07T23:18:44.898Z,72.03
2022-10-07T23:21:26.256Z,72.42
2022-10-07T23:24:04.356Z,72.87
2022-10-07T23:26:33.462Z,72.57
2022-10-07T23:29:00.951Z,72.86
2022-10-07T23:31:29.543Z,72.79
2022-10-07T23:33:57.301Z,72.43
2022-10-07T23:36:25.391Z,72.24
2022-10-07T23:38:53.148Z,71.75
2022-10-07T23:41:22.476Z,71.69
2022-10-07T23:43:50.661Z,71.37
2022-10-07T23:46:18.918Z,71.46
2022-10-07T23:48:47.025Z,71.42
2022-10-07T23:51:16.310Z,71.13
2022-10-07T23:53:43.089Z,71.15
2022-10-07T23:56:10.224Z,71.47
2022-10-07T23:58:37.624Z,71.86
